createdAt,value
2023-02-17T00:01:21.100Z,10.00
2023-02-17T00:03:52.623Z,9.93
2023-02-17T00:06:26.037Z,10.73
2023-02-17T00:08:55.022Z,9.90
2023-02-17T00:11:22.703Z,10.27
2023-02-17T00:13:49.820Z,10.23
2023-02-17T00:16:22.967Z,10.25
2023-02-17T00:18:56.711Z,9.90
2023-02-17T00:21:26.223Z,9.95
2023-02-17T00:23:54.352Z,10.38
2023-02-17T00:26:22.127Z,9.95
2023-02-17T00:28:50.436Z,9.15
2023-02-17T00:31:21.225Z,10.57
2023-02-17T00:33:49.483Z,8.15
2023-02-17T00:36:19.744Z,8.77
2023-02-17T00:38:48.700Z,8.77
2023-02-17T00:41:19.919Z,9.80
2023-02-17T00:43:47.858Z,8.50
2023-02-17T00:46:17.876Z,8.23
2023-02-17T00:48:47.801Z,8.40
2023-02-17T00:51:16.690Z,7.85
2023-02-17T00:53:46.531Z,8.00
2023-02-17T00:56:14.191Z,7.70
2023-02-17T00:58:41.686Z,8.32
2023-02-17T01:01:10.582Z,8.18
2023-02-17T01:03:42.563Z,8.50
2023-02-17T01:06:21.912Z,9.20
2023-02-17T01:08:49.288Z,8.95
2023-02-17T01:11:21.868Z,7.78
2023-02-17T01:13:49.511Z,7.75
2023-02-17T01:16:22.901Z,8.73
2023-02-17T01:18:50.440Z,9.10
2023-02-17T01:21:20.920Z,9.77
2023-02-17T01:23:52.735Z,8.65
2023-02-17T01:26:23.990Z,8.80
2023-02-17T01:28:52.539Z,9.18
2023-02-17T01:31:22.372Z,10.10
2023-02-17T01:33:49.967Z,10.23
2023-02-17T01:36:19.143Z,8.32
2023-02-17T01:38:47.391Z,9.35
2023-02-17T01:41:17.057Z,9.68
2023-02-17T01:44:04.289Z,10.32
2023-02-17T01:46:36.449Z,10.00
2023-02-17T01:49:22.670Z,9.60
2023-02-17T01:51:55.835Z,10.13
2023-02-17T01:54:29.644Z,10.07
2023-02-17T01:56:59.734Z,11.38
2023-02-17T01:59:28.846Z,10.90
2023-02-17T02:02:00.922Z,10.82
2023-02-17T02:04:32.312Z,10.88
2023-02-17T02:07:00.307Z,11.68
2023-02-17T02:09:36.851Z,10.77
2023-02-17T02:12:16.080Z,11.73
2023-02-17T02:14:46.587Z,11.60
2023-02-17T02:17:28.305Z,12.38
2023-02-17T02:20:17.127Z,12.02
2023-02-17T02:23:06.226Z,11.75
2023-02-17T02:25:59.563Z,12.60
2023-02-17T02:28:54.748Z,13.02
2023-02-17T02:31:25.010Z,13.43
2023-02-17T02:33:57.536Z,13.23
2023-02-17T02:36:34.211Z,13.80
2023-02-17T02:39:17.163Z,13.13
2023-02-17T02:41:49.875Z,14.10
2023-02-17T02:44:20.346Z,14.02
2023-02-17T02:47:23.801Z,13.15
2023-02-17T02:49:51.370Z,13.80
2023-02-17T02:52:34.390Z,13.15
2023-02-17T02:55:23.238Z,13.38
2023-02-17T02:58:19.101Z,12.90
2023-02-17T03:00:54.125Z,13.38
2023-02-17T03:03:40.173Z,13.48
2023-02-17T03:09:25.798Z,13.75
2023-02-17T03:11:55.737Z,13.65
2023-02-17T03:14:23.686Z,13.50
2023-02-17T03:16:52.730Z,12.95
2023-02-17T03:19:24.032Z,12.00
2023-02-17T03:22:18.493Z,12.27
2023-02-17T03:24:48.141Z,11.60
2023-02-17T03:27:15.536Z,12.25
2023-02-17T03:29:42.952Z,12.00
2023-02-17T03:32:10.421Z,12.15
2023-02-17T03:34:37.632Z,12.93
2023-02-17T03:37:04.896Z,12.18
2023-02-17T03:39:32.064Z,12.73
2023-02-17T03:41:59.176Z,11.88
2023-02-17T03:44:26.448Z,12.80
2023-02-17T03:46:53.671Z,13.30
2023-02-17T03:49:20.913Z,12.80
2023-02-17T03:51:48.390Z,12.48
2023-02-17T03:54:15.683Z,13.20
2023-02-17T03:56:42.889Z,11.45
2023-02-17T03:59:10.139Z,11.77
2023-02-17T04:01:37.282Z,11.15
2023-02-17T04:04:05.013Z,12.10
2023-02-17T04:06:32.906Z,11.35
2023-02-17T04:09:00.314Z,11.80
2023-02-17T04:11:27.728Z,11.23
2023-02-17T04:13:54.876Z,12.02
2023-02-17T04:16:22.820Z,11.30
2023-02-17T04:18:49.939Z,11.75
2023-02-17T04:21:17.084Z,10.95
2023-02-17T04:23:45.355Z,10.73
2023-02-17T04:26:12.506Z,11.70
2023-02-17T04:28:41.586Z,12.63
2023-02-17T04:31:10.039Z,12.70
2023-02-17T04:33:38.596Z,11.73
2023-02-17T04:36:06.696Z,10.90
2023-02-17T04:38:34.554Z,11.18
2023-02-17T04:41:01.882Z,11.07
2023-02-17T04:43:29.293Z,11.43
2023-02-17T04:45:57.285Z,12.48
2023-02-17T04:48:26.649Z,13.20
2023-02-17T04:50:54.049Z,11.98
2023-02-17T04:53:22.725Z,12.15
2023-02-17T04:55:52.186Z,13.68
2023-02-17T04:58:20.248Z,12.88
2023-02-17T05:00:49.567Z,12.80
2023-02-17T05:03:18.173Z,12.77
2023-02-17T05:05:45.283Z,12.90
2023-02-17T05:08:12.759Z,12.52
2023-02-17T05:10:39.916Z,12.82
2023-02-17T05:13:07.454Z,13.35
2023-02-17T05:15:35.137Z,11.40
2023-02-17T05:18:03.011Z,11.32
2023-02-17T05:20:30.274Z,10.57
2023-02-17T05:22:57.394Z,12.07
2023-02-17T05:25:24.525Z,10.55
2023-02-17T05:27:51.726Z,12.85
2023-02-17T05:30:19.421Z,12.27
2023-02-17T05:32:46.657Z,13.15
2023-02-17T05:35:13.888Z,12.50
2023-02-17T05:37:41.188Z,12.73
2023-02-17T05:40:08.620Z,13.52
2023-02-17T05:42:35.667Z,13.20
2023-02-17T05:45:02.916Z,13.68
2023-02-17T05:47:31.375Z,13.80
2023-02-17T05:49:58.658Z,12.88
2023-02-17T05:52:28.044Z,12.18
2023-02-17T05:54:55.442Z,12.63
2023-02-17T05:57:22.834Z,12.23
2023-02-17T05:59:49.977Z,10.90
2023-02-17T06:02:17.048Z,11.68
2023-02-17T06:04:44.544Z,11.68
2023-02-17T06:07:11.728Z,12.38
2023-02-17T06:09:38.834Z,12.52
2023-02-17T06:12:06.280Z,12.38
2023-02-17T06:14:33.504Z,12.93
2023-02-17T06:17:01.809Z,14.35
2023-02-17T06:19:28.998Z,13.80
2023-02-17T06:21:57.347Z,13.52
2023-02-17T06:24:25.630Z,13.35
2023-02-17T06:26:52.769Z,13.98
2023-02-17T06:29:20.038Z,14.35
2023-02-17T06:31:47.228Z,13.88
2023-02-17T06:34:14.488Z,14.27
2023-02-17T06:36:41.917Z,15.13
2023-02-17T06:39:08.985Z,14.85
2023-02-17T06:41:38.197Z,14.70
2023-02-17T06:44:05.355Z,15.30
2023-02-17T06:46:32.815Z,16.85
2023-02-17T06:49:01.555Z,12.63
2023-02-17T06:51:29.304Z,12.23
2023-02-17T06:53:56.961Z,11.13
2023-02-17T06:56:24.281Z,10.88
2023-02-17T06:58:51.646Z,11.13
2023-02-17T07:01:21.612Z,10.65
2023-02-17T07:03:49.249Z,9.90
2023-02-17T07:06:16.353Z,10.80
2023-02-17T07:08:43.698Z,10.98
2023-02-17T07:11:13.071Z,10.77
2023-02-17T07:13:41.209Z,11.02
2023-02-17T07:16:10.266Z,10.85
2023-02-17T07:18:41.106Z,10.18
2023-02-17T07:21:10.080Z,9.82
2023-02-17T07:23:39.021Z,10.13
2023-02-17T07:26:09.656Z,9.27
2023-02-17T07:28:38.980Z,9.68
2023-02-17T07:31:14.156Z,9.48
2023-02-17T07:33:42.302Z,8.73
2023-02-17T07:36:14.744Z,9.32
2023-02-17T07:38:43.037Z,7.55
2023-02-17T07:41:13.386Z,7.03
2023-02-17T07:43:40.955Z,8.02
2023-02-17T07:46:11.071Z,7.13
2023-02-17T07:48:38.694Z,7.43
2023-02-17T07:51:15.591Z,7.47
2023-02-17T07:53:43.027Z,7.82
2023-02-17T07:56:12.578Z,8.18
2023-02-17T07:58:41.715Z,11.15
2023-02-17T08:01:17.484Z,13.38
2023-02-17T08:03:45.491Z,10.30
2023-02-17T08:06:15.669Z,12.65
2023-02-17T08:09:01.222Z,8.30
2023-02-17T08:11:49.798Z,12.60
2023-02-17T08:14:17.776Z,11.80
2023-02-17T08:16:45.161Z,11.43
2023-02-17T08:19:12.410Z,9.73
2023-02-17T08:21:39.999Z,11.30
2023-02-17T08:24:07.377Z,11.43
2023-02-17T08:26:34.605Z,10.40
2023-02-17T08:29:01.742Z,11.95
2023-02-17T08:31:32.964Z,10.75
2023-02-17T08:34:02.306Z,11.88
2023-02-17T08:36:30.581Z,11.25
2023-02-17T08:38:58.621Z,11.27
2023-02-17T08:41:37.797Z,11.27
2023-02-17T08:44:09.834Z,12.27
2023-02-17T08:46:37.752Z,12.35
2023-02-17T08:49:06.825Z,12.13
2023-02-17T08:51:35.314Z,12.05
2023-02-17T08:54:04.906Z,11.73
2023-02-17T08:56:32.821Z,12.65
2023-02-17T08:59:00.373Z,13.07
2023-02-17T09:01:29.431Z,12.25
2023-02-17T09:03:59.321Z,13.50
2023-02-17T09:06:35.943Z,12.10
2023-02-17T09:09:04.480Z,11.55
2023-02-17T09:11:32.482Z,10.50
2023-02-17T09:13:59.659Z,9.85
2023-02-17T09:16:27.107Z,10.20
2023-02-17T09:18:55.126Z,9.80
2023-02-17T09:21:22.440Z,8.90
2023-02-17T09:23:49.828Z,8.50
2023-02-17T09:26:18.378Z,8.15
2023-02-17T09:28:46.210Z,8.13
2023-02-17T09:31:24.326Z,7.93
2023-02-17T09:33:52.306Z,8.07
2023-02-17T09:36:28.962Z,7.78
2023-02-17T09:38:57.414Z,7.35
2023-02-17T09:41:38.367Z,7.72
2023-02-17T09:44:08.339Z,7.50
2023-02-17T09:47:00.592Z,8.77
2023-02-17T09:49:35.409Z,7.93
2023-02-17T09:52:24.445Z,8.30
2023-02-17T09:54:57.547Z,9.38
2023-02-17T09:57:29.445Z,9.68
2023-02-17T10:00:04.046Z,10.25
2023-02-17T10:02:45.662Z,10.77
2023-02-17T10:05:16.838Z,10.00
2023-02-17T10:07:54.428Z,9.48
2023-02-17T10:10:29.708Z,8.05
2023-02-17T10:13:00.758Z,7.72
2023-02-17T10:15:43.399Z,7.28
2023-02-17T10:18:25.533Z,7.10
2023-02-17T10:21:26.978Z,7.50
2023-02-17T10:23:54.329Z,6.88
2023-02-17T10:26:34.407Z,7.78
2023-02-17T10:29:07.830Z,10.07
2023-02-17T10:31:48.101Z,9.88
2023-02-17T10:34:33.819Z,10.77
2023-02-17T10:37:14.248Z,10.10
2023-02-17T10:39:52.422Z,10.75
2023-02-17T10:42:28.045Z,10.02
2023-02-17T10:45:06.527Z,10.65
2023-02-17T10:47:36.926Z,9.15
2023-02-17T10:50:07.204Z,8.38
2023-02-17T10:52:40.288Z,8.30
2023-02-17T10:55:25.666Z,7.50
2023-02-17T10:57:59.307Z,6.70
2023-02-17T11:00:27.286Z,6.93
2023-02-17T11:02:54.545Z,6.82
2023-02-17T11:05:32.405Z,6.85
2023-02-17T11:08:06.880Z,8.88
2023-02-17T11:10:37.533Z,8.40
2023-02-17T11:13:28.808Z,8.82
2023-02-17T11:15:56.526Z,8.80
2023-02-17T11:18:28.621Z,8.80
2023-02-17T11:21:05.760Z,10.35
2023-02-17T11:23:34.217Z,9.70
2023-02-17T11:26:11.278Z,9.73
2023-02-17T11:28:38.476Z,8.50
2023-02-17T11:31:07.518Z,10.25
2023-02-17T11:33:39.826Z,8.10
2023-02-17T11:36:13.748Z,9.02
2023-02-17T11:38:41.102Z,10.43
2023-02-17T11:41:09.283Z,9.63
2023-02-17T11:43:37.380Z,9.13
2023-02-17T11:46:26.427Z,7.93
2023-02-17T11:49:07.755Z,7.40
2023-02-17T11:52:12.306Z,6.43
2023-02-17T11:55:01.369Z,6.50
2023-02-17T11:57:45.365Z,6.70
2023-02-17T12:00:19.203Z,6.68
2023-02-17T12:03:20.777Z,6.60
2023-02-17T12:06:26.571Z,6.82
2023-02-17T12:09:17.308Z,7.10
2023-02-17T12:11:52.396Z,6.60
2023-02-17T12:17:12.445Z,6.18
2023-02-17T12:19:50.661Z,6.00
2023-02-17T12:22:46.940Z,6.65
2023-02-17T12:25:24.326Z,7.20
2023-02-17T12:28:36.885Z,7.28
2023-02-17T12:31:09.982Z,6.93
2023-02-17T12:33:59.167Z,7.10
2023-02-17T12:36:35.069Z,6.50
2023-02-17T12:39:11.711Z,6.32
2023-02-17T12:41:48.337Z,6.65
2023-02-17T12:44:15.520Z,6.65
2023-02-17T12:46:50.555Z,7.45
2023-02-17T12:51:59.164Z,6.72
2023-02-17T12:54:29.319Z,6.53
2023-02-17T12:57:08.567Z,6.75
2023-02-17T12:59:39.316Z,6.75
2023-02-17T13:02:24.621Z,6.80
2023-02-17T13:04:57.868Z,6.22
2023-02-17T13:07:34.183Z,6.60
2023-02-17T13:10:02.128Z,6.50
2023-02-17T13:12:40.869Z,6.25
2023-02-17T13:15:31.514Z,6.13
2023-02-17T13:18:07.846Z,5.90
2023-02-17T13:20:55.062Z,6.38
2023-02-17T13:23:37.828Z,5.95
2023-02-17T13:26:21.899Z,5.82
2023-02-17T13:28:51.894Z,6.65
2023-02-17T13:31:22.606Z,6.30
2023-02-17T13:33:53.320Z,6.32
2023-02-17T13:36:29.678Z,7.15
2023-02-17T13:39:03.196Z,7.18
2023-02-17T13:41:44.778Z,6.90
2023-02-17T13:44:28.005Z,7.75
2023-02-17T13:47:06.643Z,8.43
2023-02-17T13:49:35.364Z,8.00
2023-02-17T13:52:22.519Z,8.15
2023-02-17T13:54:53.739Z,8.45
2023-02-17T13:57:32.243Z,8.00
2023-02-17T14:00:27.053Z,8.95
2023-02-17T14:03:03.689Z,9.70
2023-02-17T14:05:30.935Z,9.40
2023-02-17T14:08:04.542Z,9.15
2023-02-17T14:10:33.514Z,8.63
2023-02-17T14:13:01.229Z,8.40
2023-02-17T14:15:29.313Z,7.25
2023-02-17T14:17:57.145Z,6.80
2023-02-17T14:20:34.826Z,6.82
2023-02-17T14:23:07.831Z,7.68
2023-02-17T14:25:37.818Z,7.15
2023-02-17T14:28:17.807Z,7.07
2023-02-17T14:30:45.382Z,7.25
2023-02-17T14:33:16.368Z,6.88
2023-02-17T14:36:25.331Z,6.68
2023-02-17T14:38:56.528Z,6.63
2023-02-17T14:41:23.733Z,5.93
2023-02-17T14:43:50.836Z,5.90
2023-02-17T14:46:20.180Z,5.85
2023-02-17T14:48:48.324Z,7.28
2023-02-17T14:51:17.946Z,7.20
2023-02-17T14:53:45.836Z,6.20
2023-02-17T14:56:45.226Z,6.03
2023-02-17T14:59:12.584Z,6.15
2023-02-17T15:01:39.936Z,5.53
2023-02-17T15:04:07.138Z,5.95
2023-02-17T15:06:41.601Z,5.43
2023-02-17T15:09:14.483Z,5.40
2023-02-17T15:11:45.745Z,6.00
2023-02-17T15:14:16.442Z,5.90
2023-02-17T15:16:45.316Z,5.55
2023-02-17T15:19:13.854Z,5.00
2023-02-17T15:21:46.596Z,5.55
2023-02-17T15:24:35.130Z,5.35
2023-02-17T15:27:06.049Z,5.65
2023-02-17T15:29:33.466Z,4.97
2023-02-17T15:32:04.191Z,5.15
2023-02-17T15:34:33.486Z,4.63
2023-02-17T15:37:01.447Z,4.63
2023-02-17T15:39:29.145Z,4.70
2023-02-17T15:42:11.710Z,8.38
2023-02-17T15:44:47.154Z,5.00
2023-02-17T15:47:17.950Z,4.57
2023-02-17T15:49:45.502Z,4.53
2023-02-17T15:52:13.951Z,4.80
2023-02-17T15:54:42.900Z,4.50
2023-02-17T15:57:22.675Z,4.60
2023-02-17T15:59:50.080Z,4.97
2023-02-17T16:02:22.646Z,4.63
2023-02-17T16:04:49.973Z,4.97
2023-02-17T16:07:17.186Z,5.30
2023-02-17T16:09:44.279Z,5.22
2023-02-17T16:12:27.221Z,5.22
2023-02-17T16:15:02.014Z,5.70
2023-02-17T16:17:34.106Z,4.75
2023-02-17T16:20:08.486Z,5.28
2023-02-17T16:22:48.815Z,5.20
2023-02-17T16:25:18.191Z,5.13
2023-02-17T16:27:47.786Z,5.45
2023-02-17T16:30:30.771Z,5.43
2023-02-17T16:33:01.782Z,6.22
2023-02-17T16:35:36.478Z,5.23
2023-02-17T16:38:12.681Z,5.25
2023-02-17T16:40:54.046Z,4.90
2023-02-17T16:43:32.177Z,5.28
2023-02-17T16:46:04.901Z,5.30
2023-02-17T16:48:35.874Z,5.40
2023-02-17T16:51:03.028Z,4.95
2023-02-17T16:53:30.162Z,5.00
2023-02-17T16:55:57.960Z,5.28
2023-02-17T16:58:27.863Z,5.55
2023-02-17T17:00:57.613Z,5.70
2023-02-17T17:03:27.507Z,5.40
2023-02-17T17:05:55.349Z,5.28
2023-02-17T17:08:22.764Z,5.95
2023-02-17T17:10:51.794Z,5.93
2023-02-17T17:13:19.099Z,5.55
2023-02-17T17:15:46.531Z,5.25
2023-02-17T17:18:21.400Z,5.47
2023-02-17T17:20:49.468Z,5.63
2023-02-17T17:23:18.502Z,6.32
2023-02-17T17:25:47.021Z,6.00
2023-02-17T17:28:16.227Z,5.75
2023-02-17T17:30:43.499Z,6.50
2023-02-17T17:33:10.737Z,6.32
2023-02-17T17:35:38.650Z,5.90
2023-02-17T17:38:06.381Z,5.70
2023-02-17T17:40:48.709Z,5.40
2023-02-17T17:43:21.791Z,5.40
2023-02-17T17:45:49.766Z,5.57
2023-02-17T17:48:17.958Z,5.30
2023-02-17T17:50:45.842Z,5.30
2023-02-17T17:53:12.989Z,6.00
2023-02-17T17:55:40.207Z,5.57
2023-02-17T17:58:07.576Z,5.93
2023-02-17T18:00:34.713Z,5.72
2023-02-17T18:03:02.048Z,5.40
2023-02-17T18:05:29.231Z,5.63
2023-02-17T18:07:56.988Z,5.65
2023-02-17T18:10:24.374Z,5.70
2023-02-17T18:12:52.171Z,5.38
2023-02-17T18:15:19.513Z,5.57
2023-02-17T18:17:48.386Z,6.25
2023-02-17T18:20:15.775Z,5.90
2023-02-17T18:22:43.297Z,6.47
2023-02-17T18:25:12.313Z,6.10
2023-02-17T18:27:43.941Z,6.50
2023-02-17T18:30:15.033Z,6.28
2023-02-17T18:32:44.112Z,6.50
2023-02-17T18:35:12.049Z,6.53
2023-02-17T18:37:41.351Z,5.38
2023-02-17T18:40:13.659Z,6.45
2023-02-17T18:42:42.664Z,6.07
2023-02-17T18:45:10.202Z,5.13
2023-02-17T18:47:37.639Z,5.85
2023-02-17T18:50:06.889Z,6.32
2023-02-17T18:52:34.015Z,5.95
2023-02-17T18:55:01.216Z,5.78
2023-02-17T18:57:28.388Z,6.40
2023-02-17T18:59:55.638Z,6.00
2023-02-17T19:02:24.411Z,6.40
2023-02-17T19:04:56.151Z,6.07
2023-02-17T19:07:23.342Z,5.90
2023-02-17T19:09:51.852Z,5.88
2023-02-17T19:12:19.611Z,6.10
2023-02-17T19:14:48.477Z,5.57
2023-02-17T19:17:18.491Z,5.68
2023-02-17T19:19:46.013Z,5.85
2023-02-17T19:22:13.807Z,5.53
2023-02-17T19:24:42.192Z,5.90
2023-02-17T19:27:10.362Z,6.30
2023-02-17T19:29:37.635Z,6.22
2023-02-17T19:32:05.574Z,5.57
2023-02-17T19:34:32.801Z,5.70
2023-02-17T19:37:00.014Z,5.25
2023-02-17T19:39:27.255Z,5.60
2023-02-17T19:41:54.486Z,5.97
2023-02-17T19:44:21.710Z,5.93
2023-02-17T19:46:49.246Z,5.07
2023-02-17T19:49:16.472Z,5.90
2023-02-17T19:51:43.781Z,6.53
2023-02-17T19:54:10.992Z,6.20
2023-02-17T19:56:39.116Z,5.57
2023-02-17T19:59:06.410Z,5.68
2023-02-17T20:01:34.688Z,5.75
2023-02-17T20:04:05.151Z,6.03
2023-02-17T20:06:41.044Z,5.70
2023-02-17T20:09:15.145Z,5.85
2023-02-17T20:11:44.444Z,6.50
2023-02-17T20:14:12.232Z,6.00
2023-02-17T20:16:40.041Z,5.32
2023-02-17T20:19:07.607Z,5.60
2023-02-17T20:21:38.566Z,5.32
2023-02-17T20:24:06.267Z,5.30
2023-02-17T20:26:40.604Z,5.13
2023-02-17T20:29:11.893Z,5.18
2023-02-17T20:31:41.175Z,5.40
2023-02-17T20:34:20.645Z,5.75
2023-02-17T20:36:47.893Z,5.88
2023-02-17T20:39:15.233Z,5.75
2023-02-17T20:41:42.461Z,5.38
2023-02-17T20:44:12.524Z,5.90
2023-02-17T20:46:41.641Z,5.88
2023-02-17T20:49:08.923Z,5.00
2023-02-17T20:51:36.158Z,5.78
2023-02-17T20:54:03.904Z,5.35
2023-02-17T20:56:35.325Z,4.90
2023-02-17T20:59:03.456Z,5.30
2023-02-17T21:01:30.780Z,5.45
2023-02-17T21:03:59.291Z,5.00
2023-02-17T21:06:34.197Z,6.10
2023-02-17T21:09:05.943Z,5.80
2023-02-17T21:11:33.904Z,4.78
2023-02-17T21:14:01.498Z,5.80
2023-02-17T21:16:33.940Z,6.07
2023-02-17T21:19:02.030Z,6.40
2023-02-17T21:21:30.549Z,6.43
2023-02-17T21:23:58.830Z,6.95
2023-02-17T21:26:27.314Z,6.22
2023-02-17T21:28:54.638Z,6.85
2023-02-17T21:31:23.075Z,6.70
2023-02-17T21:33:50.304Z,6.70
2023-02-17T21:36:18.395Z,6.03
2023-02-17T21:38:46.091Z,6.43
2023-02-17T21:41:19.220Z,5.97
2023-02-17T21:44:05.716Z,6.40
2023-02-17T21:46:33.714Z,6.45
2023-02-17T21:49:01.847Z,6.13
2023-02-17T21:51:29.710Z,6.03
2023-02-17T21:53:56.927Z,5.72
2023-02-17T21:56:24.600Z,5.78
2023-02-17T21:58:53.312Z,5.82
2023-02-17T22:01:21.744Z,6.07
2023-02-17T22:03:48.999Z,6.28
2023-02-17T22:06:30.148Z,5.85
2023-02-17T22:08:58.912Z,6.00
2023-02-17T22:11:29.974Z,5.95
2023-02-17T22:13:59.673Z,5.70
2023-02-17T22:16:29.866Z,5.75
2023-02-17T22:18:57.430Z,5.47
2023-02-17T22:21:26.948Z,5.38
2023-02-17T22:23:55.390Z,5.40
2023-02-17T22:26:23.976Z,5.25
2023-02-17T22:28:51.369Z,5.70
2023-02-17T22:31:22.118Z,5.55
2023-02-17T22:33:49.810Z,5.55
2023-02-17T22:36:20.031Z,5.90
2023-02-17T22:38:47.366Z,5.82
2023-02-17T22:41:16.963Z,5.70
2023-02-17T22:43:45.999Z,5.57
2023-02-17T22:46:16.427Z,5.70
2023-02-17T22:48:45.426Z,5.63
2023-02-17T22:51:16.108Z,5.82
2023-02-17T22:53:43.409Z,5.00
2023-02-17T22:56:10.629Z,4.95
2023-02-17T22:58:38.000Z,5.15
2023-02-17T23:01:09.909Z,5.43
2023-02-17T23:03:37.569Z,4.75
2023-02-17T23:06:08.517Z,5.03
2023-02-17T23:08:37.596Z,5.18
2023-02-17T23:11:09.682Z,4.95
2023-02-17T23:13:38.184Z,5.07
2023-02-17T23:16:07.337Z,5.63
2023-02-17T23:18:36.111Z,5.32
2023-02-17T23:21:14.058Z,6.10
2023-02-17T23:23:41.206Z,5.07
2023-02-17T23:26:08.531Z,5.80
2023-02-17T23:28:35.806Z,5.53
2023-02-17T23:31:03.079Z,5.70
2023-02-17T23:33:30.356Z,5.55
2023-02-17T23:35:57.669Z,5.78
2023-02-17T23:38:24.800Z,5.63
2023-02-17T23:40:53.058Z,4.93
2023-02-17T23:43:21.436Z,5.35
2023-02-17T23:45:49.171Z,5.63
2023-02-17T23:48:17.000Z,5.93
2023-02-17T23:50:44.094Z,5.35
2023-02-17T23:53:11.180Z,4.50
2023-02-17T23:55:38.293Z,5.65
2023-02-17T23:58:05.398Z,5.43
